DBOBS BITN-ENJA

Flight info

Callsign DBOBS
Flight time 1h 19m
Altitude 34000
Route H6615 7010N
Aircraft EPIC/L-SBGRY/LB1

Departure

Time 2026-05-05 19:29
Airport Þórshöfn Airport (BITN)

Arrival

Time 2026-05-05 20:48
Airport Jan Mayensfield (ENJA)
Time Latitude Longitude Altitude Speed Heading
2026-05-05 19:20 66.22035 -15.33186 62 ft 0 kts 94°
2026-05-05 19:25 66.22035 -15.33185 62 ft 0 kts 94°
2026-05-05 19:25 66.22026 -15.33159 62 ft 5 kts 157°
2026-05-05 19:26 66.22044 -15.33222 62 ft 6 kts 327°
2026-05-05 19:26 66.22047 -15.33234 62 ft 0 kts 298°
2026-05-05 19:26 66.22049 -15.33241 62 ft 2 kts 292°
2026-05-05 19:26 66.22057 -15.33349 62 ft 9 kts 273°
2026-05-05 19:27 66.21981 -15.33437 61 ft 21 kts 183°
2026-05-05 19:27 66.21774 -15.33474 55 ft 34 kts 183°
2026-05-05 19:27 66.21523 -15.33502 49 ft 28 kts 182°
2026-05-05 19:27 66.21349 -15.33509 47 ft 15 kts 181°
2026-05-05 19:28 66.21339 -15.33537 47 ft 8 kts 20°
2026-05-05 19:28 66.21349 -15.33534 47 ft 0 kts
2026-05-05 19:28 66.21433 -15.33524 48 ft 44 kts
2026-05-05 19:29 66.21980 -15.33420 99 ft 97 kts
2026-05-05 19:29 66.22809 -15.33323 242 ft 132 kts 360°
2026-05-05 19:29 66.23752 -15.33304 836 ft 132 kts 359°
2026-05-05 19:29 66.24700 -15.33350 1473 ft 133 kts 357°
2026-05-05 19:30 66.25627 -15.33099 2165 ft 129 kts 14°
2026-05-05 19:30 66.26514 -15.32328 2824 ft 138 kts 19°
2026-05-05 19:30 66.27367 -15.31327 3700 ft 136 kts 24°
2026-05-05 19:30 66.28231 -15.30218 4574 ft 135 kts 21°
2026-05-05 19:31 66.29047 -15.29118 5361 ft 137 kts 24°
2026-05-05 19:31 66.29896 -15.27972 6102 ft 140 kts 25°
2026-05-05 19:31 66.30745 -15.26805 6857 ft 142 kts 22°
2026-05-05 19:31 66.31624 -15.25598 7616 ft 144 kts 22°
2026-05-05 19:32 66.32513 -15.24372 8172 ft 150 kts 24°
2026-05-05 19:32 66.33438 -15.23095 8653 ft 158 kts 26°
2026-05-05 19:32 66.34408 -15.21748 9210 ft 160 kts 25°
2026-05-05 19:32 66.35372 -15.20413 9786 ft 161 kts 26°
2026-05-05 19:33 66.36379 -15.19016 10368 ft 163 kts 26°
2026-05-05 19:33 66.37355 -15.17664 10920 ft 165 kts 26°
2026-05-05 19:33 66.38363 -15.16265 11543 ft 168 kts 27°
2026-05-05 19:33 66.39378 -15.14853 12239 ft 168 kts 27°
2026-05-05 19:34 66.40391 -15.13445 12907 ft 169 kts 27°
2026-05-05 19:34 66.41407 -15.12030 13555 ft 172 kts 27°
2026-05-05 19:34 66.42442 -15.10587 14197 ft 174 kts 27°
2026-05-05 19:35 66.44555 -15.07639 15502 ft 177 kts 28°
2026-05-05 19:35 66.45624 -15.06145 16159 ft 178 kts 28°
2026-05-05 19:35 66.46703 -15.04635 16814 ft 180 kts 28°
2026-05-05 19:35 66.47789 -15.03114 17461 ft 181 kts 29°
2026-05-05 19:36 66.48882 -15.01582 18110 ft 182 kts 29°
2026-05-05 19:36 66.49986 -15.00045 18755 ft 184 kts 27°
2026-05-05 19:36 66.51133 -14.98658 19387 ft 186 kts 26°
2026-05-05 19:36 66.52277 -14.97275 20017 ft 186 kts 26°
2026-05-05 19:37 66.53436 -14.95878 20591 ft 188 kts 26°
2026-05-05 19:37 66.54630 -14.94438 21165 ft 191 kts 27°
2026-05-05 19:37 66.55822 -14.92999 21752 ft 192 kts 27°
2026-05-05 19:37 66.57028 -14.91540 22324 ft 194 kts 27°
2026-05-05 19:38 66.58231 -14.90087 22886 ft 196 kts 27°
2026-05-05 19:38 66.59456 -14.88604 23455 ft 198 kts 27°
2026-05-05 19:38 66.60682 -14.87117 23940 ft 197 kts 27°
2026-05-05 19:38 66.61933 -14.85598 24347 ft 197 kts 27°
2026-05-05 19:39 66.63160 -14.84108 24764 ft 196 kts 27°
2026-05-05 19:39 66.64382 -14.82621 25146 ft 197 kts 27°
2026-05-05 19:39 66.65620 -14.81111 25490 ft 199 kts 27°
2026-05-05 19:39 66.66862 -14.79598 25825 ft 201 kts 27°
2026-05-05 19:40 66.68124 -14.78059 26161 ft 203 kts 27°
2026-05-05 19:40 66.69401 -14.76500 26498 ft 204 kts 27°
2026-05-05 19:40 66.70673 -14.74944 26823 ft 206 kts 26°
2026-05-05 19:40 66.71956 -14.73373 27148 ft 209 kts 26°
2026-05-05 19:41 66.73278 -14.71754 27531 ft 212 kts 26°
2026-05-05 19:41 66.74582 -14.70155 27893 ft 213 kts 26°
2026-05-05 19:41 66.75932 -14.68497 28186 ft 218 kts 26°
2026-05-05 19:41 66.77301 -14.66812 28408 ft 226 kts 26°
2026-05-05 19:42 66.78772 -14.65002 28418 ft 243 kts 26°
2026-05-05 19:42 66.80323 -14.63090 28449 ft 255 kts 26°
2026-05-05 19:42 66.81939 -14.61093 28472 ft 264 kts 26°
2026-05-05 19:42 66.83628 -14.59000 28480 ft 272 kts 26°
2026-05-05 19:43 66.85346 -14.56869 28512 ft 278 kts 26°
2026-05-05 19:43 66.86958 -14.54864 29679 ft 236 kts 25°
2026-05-05 19:43 66.88367 -14.53112 30245 ft 227 kts 25°
2026-05-05 19:43 66.89866 -14.51256 30235 ft 245 kts 25°
2026-05-05 19:44 66.91425 -14.49313 30258 ft 255 kts 25°
2026-05-05 19:44 66.93034 -14.47304 30271 ft 263 kts 25°
2026-05-05 19:44 66.94699 -14.45222 30292 ft 270 kts 25°
2026-05-05 19:44 66.96403 -14.43088 30301 ft 276 kts 25°
2026-05-05 19:45 66.98137 -14.40913 30308 ft 282 kts 25°
2026-05-05 19:45 66.99829 -14.38786 31251 ft 247 kts 25°
2026-05-05 19:45 67.01276 -14.36960 31693 ft 229 kts 25°
2026-05-05 19:45 67.02773 -14.35085 31667 ft 244 kts 25°
2026-05-05 19:46 67.04317 -14.33139 31678 ft 252 kts 26°
2026-05-05 19:46 67.05930 -14.31103 31693 ft 261 kts 26°
2026-05-05 19:46 67.07581 -14.29015 31718 ft 270 kts 26°
2026-05-05 19:46 67.09282 -14.26861 31728 ft 278 kts 26°
2026-05-05 19:47 67.11028 -14.24643 31740 ft 285 kts 26°
2026-05-05 19:47 67.12847 -14.22333 31762 ft 293 kts 26°
2026-05-05 19:47 67.14610 -14.20081 32358 ft 260 kts 25°
2026-05-05 19:47 67.16122 -14.18144 32780 ft 243 kts 25°
2026-05-05 19:48 67.17691 -14.16157 32755 ft 255 kts 25°
2026-05-05 19:48 67.19294 -14.14109 32774 ft 263 kts 25°
2026-05-05 19:48 67.20946 -14.11994 32792 ft 270 kts 25°
2026-05-05 19:48 67.22658 -14.09797 32805 ft 277 kts 25°
2026-05-05 19:49 67.24392 -14.07567 32813 ft 282 kts 25°
2026-05-05 19:49 67.26098 -14.05364 33283 ft 259 kts 25°
2026-05-05 19:49 67.27626 -14.03387 33810 ft 239 kts 24°
2026-05-05 19:49 67.29129 -14.01457 34015 ft 238 kts 24°
2026-05-05 19:50 67.30626 -13.99530 34107 ft 243 kts 24°
2026-05-05 19:50 67.32172 -13.97532 34233 ft 245 kts 24°
2026-05-05 19:50 67.33730 -13.95515 34258 ft 253 kts 24°
2026-05-05 19:50 67.35332 -13.93436 34264 ft 260 kts 24°
2026-05-05 19:51 67.36970 -13.91307 34263 ft 266 kts 24°
2026-05-05 19:51 67.38637 -13.89137 34269 ft 272 kts 25°
2026-05-05 19:51 67.40340 -13.86912 34267 ft 276 kts 25°
2026-05-05 19:51 67.42069 -13.84653 34268 ft 280 kts 25°
2026-05-05 19:52 67.43810 -13.82373 34263 ft 283 kts 24°
2026-05-05 19:52 67.45589 -13.80042 34265 ft 286 kts 24°
2026-05-05 19:52 67.47370 -13.77703 34257 ft 289 kts 24°
2026-05-05 19:52 67.49171 -13.75337 34264 ft 291 kts 25°
2026-05-05 19:53 67.50995 -13.72935 34265 ft 292 kts 25°
2026-05-05 19:53 67.52788 -13.70569 34263 ft 294 kts 25°
2026-05-05 19:53 67.54632 -13.68132 34259 ft 295 kts 25°
2026-05-05 19:53 67.56449 -13.65725 34259 ft 296 kts 25°
2026-05-05 19:54 67.58298 -13.63272 34257 ft 296 kts 25°
2026-05-05 19:54 67.60154 -13.60807 34259 ft 297 kts 25°
2026-05-05 19:54 67.62009 -13.58337 34261 ft 297 kts 25°
2026-05-05 19:54 67.63848 -13.55885 34259 ft 298 kts 25°
2026-05-05 19:55 67.65683 -13.53434 34263 ft 299 kts 25°
2026-05-05 19:55 67.67522 -13.50971 34257 ft 299 kts 25°
2026-05-05 19:55 67.69387 -13.48472 34259 ft 299 kts 25°
2026-05-05 19:55 67.71246 -13.45977 34249 ft 299 kts 25°
2026-05-05 19:56 67.73083 -13.43506 34253 ft 300 kts 25°
2026-05-05 19:56 67.74935 -13.41011 34258 ft 300 kts 25°
2026-05-05 19:56 67.76789 -13.38508 34250 ft 300 kts 25°
2026-05-05 19:56 67.78619 -13.36033 34252 ft 300 kts 25°
2026-05-05 19:57 67.80465 -13.33532 34260 ft 300 kts 26°
2026-05-05 19:57 67.82320 -13.31014 34260 ft 300 kts 26°
2026-05-05 19:57 67.84164 -13.28507 34253 ft 300 kts 26°
2026-05-05 19:57 67.86005 -13.25999 34255 ft 300 kts 26°
2026-05-05 19:58 67.87889 -13.23427 34254 ft 300 kts 26°
2026-05-05 19:58 67.89738 -13.20899 34255 ft 300 kts 26°
2026-05-05 19:58 67.91627 -13.18312 34257 ft 300 kts 26°
2026-05-05 19:58 67.93488 -13.15757 34256 ft 300 kts 26°
2026-05-05 19:59 67.95341 -13.13210 34257 ft 300 kts 26°
2026-05-05 19:59 67.97213 -13.10633 34255 ft 300 kts 26°
2026-05-05 19:59 67.99037 -13.08117 34256 ft 300 kts 26°
2026-05-05 19:59 68.00892 -13.05555 34255 ft 300 kts 26°
2026-05-05 20:00 68.02743 -13.02993 34255 ft 300 kts 26°
2026-05-05 20:00 68.04590 -13.00432 34249 ft 300 kts 26°
2026-05-05 20:00 68.06438 -12.97862 34256 ft 300 kts 26°
2026-05-05 20:00 68.08274 -12.95305 34257 ft 300 kts 26°
2026-05-05 20:01 68.10144 -12.92697 34256 ft 300 kts 26°
2026-05-05 20:01 68.12001 -12.90102 34258 ft 300 kts 26°
2026-05-05 20:01 68.13829 -12.87543 34259 ft 300 kts 26°
2026-05-05 20:01 68.15675 -12.84954 34259 ft 300 kts 26°
2026-05-05 20:02 68.17518 -12.82365 34254 ft 300 kts 26°
2026-05-05 20:02 68.21204 -12.77172 34258 ft 302 kts 26°
2026-05-05 20:03 68.24956 -12.71871 34255 ft 307 kts 26°
2026-05-05 20:03 68.28748 -12.66489 34248 ft 310 kts 26°
2026-05-05 20:04 68.32582 -12.61025 34248 ft 312 kts 26°
2026-05-05 20:04 68.36414 -12.55544 34238 ft 313 kts 26°
2026-05-05 20:05 68.40269 -12.50008 34236 ft 314 kts 26°
2026-05-05 20:05 68.44119 -12.44461 34244 ft 314 kts 26°
2026-05-05 20:06 68.47987 -12.38863 34235 ft 315 kts 26°
2026-05-05 20:06 68.51826 -12.33286 34232 ft 315 kts 27°
2026-05-05 20:07 68.55705 -12.27630 34239 ft 315 kts 27°
2026-05-05 20:07 68.59570 -12.21974 34239 ft 315 kts 27°
2026-05-05 20:08 68.63409 -12.16332 34236 ft 315 kts 27°
2026-05-05 20:08 68.67245 -12.10670 34235 ft 315 kts 27°
2026-05-05 20:09 68.71094 -12.04971 34239 ft 315 kts 27°
2026-05-05 20:09 68.74916 -11.99286 34238 ft 315 kts 27°
2026-05-05 20:10 68.78731 -11.93589 34235 ft 314 kts 27°
2026-05-05 20:10 68.82553 -11.87860 34234 ft 314 kts 27°
2026-05-05 20:11 68.86363 -11.82128 34229 ft 314 kts 27°
2026-05-05 20:11 68.90177 -11.76366 34229 ft 314 kts 27°
2026-05-05 20:12 68.93990 -11.70582 34232 ft 313 kts 27°
2026-05-05 20:12 68.97821 -11.64748 34221 ft 313 kts 27°
2026-05-05 20:13 69.01629 -11.58926 34226 ft 313 kts 27°
2026-05-05 20:13 69.05424 -11.53101 34223 ft 312 kts 27°
2026-05-05 20:14 69.09212 -11.47264 34227 ft 312 kts 27°
2026-05-05 20:14 69.12996 -11.41409 34237 ft 311 kts 27°
2026-05-05 20:15 69.16767 -11.35552 34241 ft 312 kts 27°
2026-05-05 20:15 69.20585 -11.29596 34244 ft 312 kts 28°
2026-05-05 20:16 69.24349 -11.23700 34244 ft 312 kts 28°
2026-05-05 20:16 69.28167 -11.17698 34242 ft 312 kts 28°
2026-05-05 20:17 69.31988 -11.11666 34239 ft 312 kts 28°
2026-05-05 20:17 69.35802 -11.05620 34238 ft 312 kts 28°
2026-05-05 20:18 69.39594 -10.99586 34234 ft 312 kts 28°
2026-05-05 20:18 69.43359 -10.93568 34227 ft 302 kts 28°
2026-05-05 20:18 69.45154 -10.90689 34231 ft 298 kts 28°
2026-05-05 20:19 69.46967 -10.87776 34233 ft 294 kts 28°
2026-05-05 20:19 69.48745 -10.84916 34235 ft 291 kts 28°
2026-05-05 20:19 69.50523 -10.82048 34237 ft 289 kts 28°
2026-05-05 20:19 69.52297 -10.79184 33999 ft 297 kts 28°
2026-05-05 20:20 69.54117 -10.76241 33729 ft 305 kts 28°
2026-05-05 20:20 69.55979 -10.73221 33467 ft 313 kts 28°
2026-05-05 20:20 69.57880 -10.70132 33215 ft 319 kts 28°
2026-05-05 20:20 69.59817 -10.66978 32922 ft 319 kts 28°
2026-05-05 20:21 69.61713 -10.63880 32609 ft 313 kts 28°
2026-05-05 20:21 69.63582 -10.60819 32287 ft 308 kts 28°
2026-05-05 20:21 69.65418 -10.57808 31955 ft 303 kts 28°
2026-05-05 20:21 69.67225 -10.54841 31622 ft 298 kts 28°
2026-05-05 20:22 69.68981 -10.51954 31173 ft 292 kts 28°
2026-05-05 20:22 69.70712 -10.49100 30754 ft 285 kts 28°
2026-05-05 20:22 69.72393 -10.46321 30380 ft 277 kts 28°
2026-05-05 20:22 69.74037 -10.43601 30027 ft 269 kts 28°
2026-05-05 20:23 69.75633 -10.40957 29699 ft 261 kts 28°
2026-05-05 20:23 69.77174 -10.38401 29373 ft 253 kts 28°
2026-05-05 20:23 69.78664 -10.35921 29065 ft 245 kts 28°
2026-05-05 20:23 69.80143 -10.33456 28768 ft 237 kts 28°
2026-05-05 20:24 69.81552 -10.31108 28496 ft 229 kts 28°
2026-05-05 20:24 69.82919 -10.28825 28233 ft 222 kts 28°
2026-05-05 20:24 69.84220 -10.26651 27989 ft 215 kts 28°
2026-05-05 20:24 69.85504 -10.24495 27762 ft 218 kts 27°
2026-05-05 20:25 69.86826 -10.22286 27522 ft 220 kts 28°
2026-05-05 20:25 69.88151 -10.20061 27276 ft 218 kts 28°
2026-05-05 20:25 69.89453 -10.17867 27032 ft 215 kts 28°
2026-05-05 20:25 69.90745 -10.15686 26796 ft 217 kts 27°
2026-05-05 20:26 69.92046 -10.13495 26563 ft 219 kts 27°
2026-05-05 20:26 69.93356 -10.11279 26323 ft 221 kts 27°
2026-05-05 20:26 69.94689 -10.09023 26078 ft 222 kts 27°
2026-05-05 20:26 69.96027 -10.06755 25832 ft 224 kts 27°
2026-05-05 20:27 69.97371 -10.04475 25581 ft 225 kts 27°
2026-05-05 20:27 69.98718 -10.02181 25331 ft 225 kts 27°
2026-05-05 20:27 70.00057 -9.99930 25213 ft 220 kts 24°
2026-05-05 20:27 70.01458 -9.98099 24774 ft 227 kts 22°
2026-05-05 20:28 70.02891 -9.96222 24351 ft 228 kts 22°
2026-05-05 20:28 70.04320 -9.94346 23941 ft 225 kts 22°
2026-05-05 20:28 70.05738 -9.92479 23544 ft 221 kts 22°
2026-05-05 20:28 70.07122 -9.90658 23156 ft 218 kts 22°
2026-05-05 20:29 70.08485 -9.88864 22782 ft 215 kts 22°
2026-05-05 20:29 70.09832 -9.87088 22419 ft 211 kts 22°
2026-05-05 20:29 70.11163 -9.85331 22074 ft 208 kts 22°
2026-05-05 20:29 70.12462 -9.83615 21735 ft 206 kts 22°
2026-05-05 20:30 70.13760 -9.81896 21391 ft 203 kts 22°
2026-05-05 20:30 70.15016 -9.80230 21059 ft 201 kts 22°
2026-05-05 20:30 70.16289 -9.78540 20724 ft 199 kts 22°
2026-05-05 20:30 70.17536 -9.76880 20396 ft 197 kts 22°
2026-05-05 20:31 70.18784 -9.75220 20071 ft 195 kts 22°
2026-05-05 20:31 70.19994 -9.73605 19750 ft 194 kts 21°
2026-05-05 20:31 70.21210 -9.71983 19426 ft 192 kts 21°
2026-05-05 20:31 70.22416 -9.70375 19107 ft 190 kts 22°
2026-05-05 20:32 70.23608 -9.68780 18791 ft 189 kts 22°
2026-05-05 20:32 70.24791 -9.67197 18480 ft 188 kts 22°
2026-05-05 20:32 70.25987 -9.65592 18166 ft 186 kts 22°
2026-05-05 20:32 70.27147 -9.64034 17857 ft 185 kts 22°
2026-05-05 20:33 70.28311 -9.62467 17548 ft 184 kts 22°
2026-05-05 20:33 70.29473 -9.60902 17240 ft 183 kts 22°
2026-05-05 20:33 70.30625 -9.59349 16937 ft 182 kts 22°
2026-05-05 20:33 70.31766 -9.57808 16633 ft 181 kts 22°
2026-05-05 20:34 70.32902 -9.56273 16330 ft 180 kts 22°
2026-05-05 20:34 70.34020 -9.54759 16034 ft 179 kts 22°
2026-05-05 20:34 70.35159 -9.53216 15731 ft 178 kts 22°
2026-05-05 20:34 70.36279 -9.51699 15436 ft 178 kts 22°
2026-05-05 20:35 70.37390 -9.50189 15142 ft 177 kts 22°
2026-05-05 20:35 70.38498 -9.48683 14849 ft 176 kts 23°
2026-05-05 20:35 70.39613 -9.47165 14551 ft 175 kts 23°
2026-05-05 20:35 70.40702 -9.45681 14262 ft 175 kts 23°
2026-05-05 20:36 70.41801 -9.44179 13971 ft 174 kts 23°
2026-05-05 20:36 70.42909 -9.42666 13677 ft 174 kts 23°
2026-05-05 20:36 70.43998 -9.41175 13386 ft 173 kts 23°
2026-05-05 20:36 70.45077 -9.39698 13098 ft 173 kts 23°
2026-05-05 20:37 70.46169 -9.38199 12807 ft 172 kts 23°
2026-05-05 20:37 70.47249 -9.36718 12519 ft 172 kts 23°
2026-05-05 20:37 70.48317 -9.35249 12234 ft 171 kts 23°
2026-05-05 20:37 70.49398 -9.33762 11946 ft 171 kts 24°
2026-05-05 20:38 70.50476 -9.32278 11662 ft 170 kts 24°
2026-05-05 20:38 70.51547 -9.30800 11379 ft 170 kts 24°
2026-05-05 20:38 70.52612 -9.29330 11098 ft 170 kts 24°
2026-05-05 20:38 70.53680 -9.27850 10819 ft 174 kts 24°
2026-05-05 20:39 70.54835 -9.26255 10532 ft 191 kts 24°
2026-05-05 20:39 70.56083 -9.24526 10202 ft 204 kts 24°
2026-05-05 20:39 70.57377 -9.22728 9854 ft 213 kts 24°
2026-05-05 20:39 70.58740 -9.20833 9477 ft 220 kts 24°
2026-05-05 20:40 70.60146 -9.18874 9089 ft 226 kts 24°
2026-05-05 20:40 70.61578 -9.16877 8698 ft 229 kts 24°
2026-05-05 20:40 70.63017 -9.14867 8306 ft 232 kts 24°
2026-05-05 20:40 70.64492 -9.12805 7904 ft 233 kts 25°
2026-05-05 20:41 70.65944 -9.10770 7510 ft 234 kts 25°
2026-05-05 20:41 70.67409 -9.08715 7113 ft 234 kts 25°
2026-05-05 20:41 70.68875 -9.06653 6719 ft 234 kts 25°
2026-05-05 20:41 70.70351 -9.04573 6323 ft 233 kts 24°
2026-05-05 20:42 70.71788 -9.02550 5930 ft 223 kts 25°
2026-05-05 20:42 70.73139 -9.00640 5565 ft 211 kts 25°
2026-05-05 20:42 70.74439 -8.98800 5219 ft 201 kts 25°
2026-05-05 20:42 70.75664 -8.97066 4895 ft 192 kts 25°
2026-05-05 20:43 70.76851 -8.95381 4581 ft 185 kts 25°
2026-05-05 20:43 70.77985 -8.93775 4283 ft 179 kts 25°
2026-05-05 20:43 70.79099 -8.92191 3988 ft 173 kts 25°
2026-05-05 20:43 70.80159 -8.90681 3708 ft 168 kts 25°
2026-05-05 20:44 70.81207 -8.89189 3433 ft 163 kts 25°
2026-05-05 20:44 70.82211 -8.87755 3169 ft 160 kts 25°
2026-05-05 20:44 70.83205 -8.86339 2943 ft 152 kts 25°
2026-05-05 20:44 70.84119 -8.85031 2702 ft 139 kts 25°
2026-05-05 20:45 70.85741 -8.82707 2246 ft 120 kts 25°
2026-05-05 20:45 70.86437 -8.81758 1941 ft 101 kts 26°
2026-05-05 20:45 70.87048 -8.80848 1844 ft 98 kts 21°
2026-05-05 20:46 70.87682 -8.79936 1699 ft 104 kts 22°
2026-05-05 20:46 70.88350 -8.78971 1659 ft 105 kts 25°
2026-05-05 20:46 70.89021 -8.78010 1634 ft 106 kts 24°
2026-05-05 20:46 70.89690 -8.77050 1595 ft 107 kts 25°
2026-05-05 20:47 70.90264 -8.75666 1684 ft 108 kts 39°
2026-05-05 20:47 70.90881 -8.73979 1657 ft 120 kts 37°
2026-05-05 20:47 70.91534 -8.72303 1363 ft 125 kts 39°
2026-05-05 20:47 70.92170 -8.70740 929 ft 113 kts 38°
2026-05-05 20:48 70.92741 -8.69347 542 ft 103 kts 34°
2026-05-05 20:48 70.93309 -8.68085 219 ft 100 kts 33°
2026-05-05 20:48 70.93797 -8.66815 80 ft 84 kts 34°
2026-05-05 20:48 70.94143 -8.65953 75 ft 25 kts 40°
2026-05-05 20:49 70.94164 -8.65930 75 ft 4 kts 269°
2026-05-05 20:49 70.94145 -8.66098 75 ft 4 kts 240°
2026-05-05 20:49 70.94151 -8.66108 75 ft 1 kts 66°
2026-05-05 20:49 70.94151 -8.66105 75 ft 0 kts 58°
2026-05-05 20:50 70.94152 -8.66101 75 ft 0 kts 43°
2026-05-05 20:50 70.94152 -8.66100 75 ft 0 kts 39°